sensor_id;sensor_type;location;lat;lon;timestamp;pressure;altitude;pressure_sealevel;temperature;humidity
11808;BME280;5961;42.640;23.380;2023-05-12T00:01:11;94294.16;;;10.35;85.18
11808;BME280;5961;42.640;23.380;2023-05-12T00:03:40;94302.25;;;10.38;85.55
11808;BME280;5961;42.640;23.380;2023-05-12T00:06:07;94302.00;;;10.31;85.81
11808;BME280;5961;42.640;23.380;2023-05-12T00:08:33;94300.44;;;10.30;86.00
11808;BME280;5961;42.640;23.380;2023-05-12T00:11:00;94307.88;;;10.37;85.86
11808;BME280;5961;42.640;23.380;2023-05-12T00:13:27;94299.03;;;10.33;85.78
11808;BME280;5961;42.640;23.380;2023-05-12T00:15:54;94295.78;;;10.27;85.56
11808;BME280;5961;42.640;23.380;2023-05-12T00:18:23;94304.44;;;10.36;85.98
11808;BME280;5961;42.640;23.380;2023-05-12T00:20:51;94304.97;;;10.30;85.79
11808;BME280;5961;42.640;23.380;2023-05-12T00:23:19;94303.13;;;10.30;85.51
11808;BME280;5961;42.640;23.380;2023-05-12T00:25:46;94299.41;;;10.23;86.49
11808;BME280;5961;42.640;23.380;2023-05-12T00:28:13;94295.66;;;10.24;86.09
11808;BME280;5961;42.640;23.380;2023-05-12T00:30:39;94295.06;;;10.18;86.94
11808;BME280;5961;42.640;23.380;2023-05-12T00:33:06;94276.75;;;9.96;87.36
11808;BME280;5961;42.640;23.380;2023-05-12T00:35:33;94294.47;;;10.04;87.73
11808;BME280;5961;42.640;23.380;2023-05-12T00:38:01;94291.09;;;9.95;88.02
11808;BME280;5961;42.640;23.380;2023-05-12T00:40:27;94285.91;;;9.78;88.90
11808;BME280;5961;42.640;23.380;2023-05-12T00:42:54;94291.84;;;9.75;89.36
11808;BME280;5961;42.640;23.380;2023-05-12T00:45:21;94298.13;;;9.62;90.20
11808;BME280;5961;42.640;23.380;2023-05-12T00:47:48;94303.81;;;9.52;90.68
11808;BME280;5961;42.640;23.380;2023-05-12T00:50:16;94294.28;;;9.51;91.31
11808;BME280;5961;42.640;23.380;2023-05-12T00:52:43;94293.22;;;9.43;91.69
11808;BME280;5961;42.640;23.380;2023-05-12T00:55:11;94286.41;;;9.33;92.40
11808;BME280;5961;42.640;23.380;2023-05-12T00:57:37;94301.97;;;9.44;92.86
11808;BME280;5961;42.640;23.380;2023-05-12T01:00:06;94294.97;;;9.39;93.58
11808;BME280;5961;42.640;23.380;2023-05-12T01:02:33;94297.78;;;9.34;93.73
11808;BME280;5961;42.640;23.380;2023-05-12T01:05:01;94303.91;;;9.26;93.95
11808;BME280;5961;42.640;23.380;2023-05-12T01:07:30;94304.84;;;9.21;95.39
11808;BME280;5961;42.640;23.380;2023-05-12T01:09:58;94278.22;;;9.01;95.09
11808;BME280;5961;42.640;23.380;2023-05-12T01:12:26;94300.19;;;9.18;94.99
11808;BME280;5961;42.640;23.380;2023-05-12T01:14:54;94302.06;;;9.18;95.17
11808;BME280;5961;42.640;23.380;2023-05-12T01:17:25;94306.75;;;9.12;95.17
11808;BME280;5961;42.640;23.380;2023-05-12T01:19:55;94302.06;;;9.01;95.64
11808;BME280;5961;42.640;23.380;2023-05-12T01:22:25;94303.97;;;9.00;95.59
11808;BME280;5961;42.640;23.380;2023-05-12T01:24:57;94306.75;;;8.95;96.55
11808;BME280;5961;42.640;23.380;2023-05-12T01:27:26;94306.13;;;8.98;96.37
11808;BME280;5961;42.640;23.380;2023-05-12T01:29:56;94306.47;;;8.88;96.19
11808;BME280;5961;42.640;23.380;2023-05-12T01:32:23;94308.50;;;8.91;96.81
11808;BME280;5961;42.640;23.380;2023-05-12T01:34:50;94298.53;;;8.88;97.44
11808;BME280;5961;42.640;23.380;2023-05-12T01:37:17;94297.13;;;8.82;97.37
11808;BME280;5961;42.640;23.380;2023-05-12T01:39:44;94271.59;;;8.60;97.56
11808;BME280;5961;42.640;23.380;2023-05-12T01:42:10;94301.94;;;8.80;98.51
11808;BME280;5961;42.640;23.380;2023-05-12T01:44:38;94299.31;;;8.80;99.11
11808;BME280;5961;42.640;23.380;2023-05-12T01:47:05;94300.09;;;8.80;99.78
11808;BME280;5961;42.640;23.380;2023-05-12T01:49:34;94288.25;;;8.69;100.00
11808;BME280;5961;42.640;23.380;2023-05-12T01:52:00;94296.03;;;8.74;100.00
11808;BME280;5961;42.640;23.380;2023-05-12T01:54:27;94302.91;;;8.75;100.00
11808;BME280;5961;42.640;23.380;2023-05-12T01:56:54;94292.78;;;8.69;100.00
11808;BME280;5961;42.640;23.380;2023-05-12T01:59:20;94304.94;;;8.70;100.00
11808;BME280;5961;42.640;23.380;2023-05-12T02:01:48;94296.38;;;8.56;100.00
11808;BME280;5961;42.640;23.380;2023-05-12T02:04:15;94300.13;;;8.63;100.00
11808;BME280;5961;42.640;23.380;2023-05-12T02:06:42;94302.91;;;8.67;100.00
11808;BME280;5961;42.640;23.380;2023-05-12T02:09:08;94302.75;;;8.72;100.00
11808;BME280;5961;42.640;23.380;2023-05-12T02:11:35;94299.03;;;8.73;100.00
11808;BME280;5961;42.640;23.380;2023-05-12T02:14:02;94282.50;;;8.59;100.00
11808;BME280;5961;42.640;23.380;2023-05-12T02:16:28;94300.56;;;8.74;100.00
11808;BME280;5961;42.640;23.380;2023-05-12T02:18:56;94304.59;;;8.80;100.00
11808;BME280;5961;42.640;23.380;2023-05-12T02:21:23;94297.44;;;8.80;100.00
11808;BME280;5961;42.640;23.380;2023-05-12T02:23:50;94299.31;;;8.80;100.00
11808;BME280;5961;42.640;23.380;2023-05-12T02:26:16;94286.22;;;8.75;100.00
11808;BME280;5961;42.640;23.380;2023-05-12T02:28:43;94300.25;;;8.84;100.00
11808;BME280;5961;42.640;23.380;2023-05-12T02:31:10;94303.81;;;8.79;100.00
11808;BME280;5961;42.640;23.380;2023-05-12T02:33:37;94290.91;;;8.78;100.00
11808;BME280;5961;42.640;23.380;2023-05-12T02:36:06;94301.63;;;8.90;100.00
11808;BME280;5961;42.640;23.380;2023-05-12T02:38:32;94301.63;;;8.90;100.00
11808;BME280;5961;42.640;23.380;2023-05-12T02:40:59;94297.41;;;8.98;100.00
11808;BME280;5961;42.640;23.380;2023-05-12T02:43:26;94300.50;;;9.08;100.00
11808;BME280;5961;42.640;23.380;2023-05-12T02:45:53;94300.34;;;9.13;100.00
11808;BME280;5961;42.640;23.380;2023-05-12T02:48:19;94300.81;;;9.15;100.00
11808;BME280;5961;42.640;23.380;2023-05-12T02:50:46;94293.75;;;9.19;100.00
11808;BME280;5961;42.640;23.380;2023-05-12T02:53:14;94305.31;;;9.23;100.00
11808;BME280;5961;42.640;23.380;2023-05-12T02:55:41;94302.03;;;9.26;100.00
11808;BME280;5961;42.640;23.380;2023-05-12T02:58:08;94296.25;;;9.24;100.00
11808;BME280;5961;42.640;23.380;2023-05-12T03:00:34;94297.50;;;9.27;100.00
11808;BME280;5961;42.640;23.380;2023-05-12T03:03:01;94267.63;;;9.09;100.00
11808;BME280;5961;42.640;23.380;2023-05-12T03:05:28;94296.72;;;9.26;100.00
11808;BME280;5961;42.640;23.380;2023-05-12T03:07:55;94301.38;;;9.29;100.00
11808;BME280;5961;42.640;23.380;2023-05-12T03:10:23;94308.09;;;9.27;100.00
11808;BME280;5961;42.640;23.380;2023-05-12T03:12:50;94302.31;;;9.33;100.00
11808;BME280;5961;42.640;23.380;2023-05-12T03:15:16;94297.97;;;9.20;100.00
11808;BME280;5961;42.640;23.380;2023-05-12T03:17:43;94304.22;;;9.24;100.00
11808;BME280;5961;42.640;23.380;2023-05-12T03:20:10;94301.88;;;9.23;100.00
11808;BME280;5961;42.640;23.380;2023-05-12T03:22:37;94284.91;;;9.15;100.00
11808;BME280;5961;42.640;23.380;2023-05-12T03:25:05;94303.91;;;9.17;100.00
11808;BME280;5961;42.640;23.380;2023-05-12T03:27:33;94304.38;;;9.19;100.00
11808;BME280;5961;42.640;23.380;2023-05-12T03:30:00;94299.25;;;9.14;100.00
11808;BME280;5961;42.640;23.380;2023-05-12T03:32:29;94310.00;;;9.18;100.00
11808;BME280;5961;42.640;23.380;2023-05-12T03:34:56;94305.34;;;9.15;100.00
11808;BME280;5961;42.640;23.380;2023-05-12T03:37:23;94307.97;;;9.15;100.00
11808;BME280;5961;42.640;23.380;2023-05-12T03:39:49;94302.06;;;9.09;100.00
11808;BME280;5961;42.640;23.380;2023-05-12T03:42:20;94315.94;;;9.15;100.00
11808;BME280;5961;42.640;23.380;2023-05-12T03:44:49;94323.41;;;9.13;100.00
11808;BME280;5961;42.640;23.380;2023-05-12T03:47:16;94317.47;;;9.16;100.00
11808;BME280;5961;42.640;23.380;2023-05-12T03:49:43;94302.72;;;9.06;100.00
11808;BME280;5961;42.640;23.380;2023-05-12T03:52:09;94314.97;;;9.19;100.00
11808;BME280;5961;42.640;23.380;2023-05-12T03:54:36;94316.56;;;9.20;100.00
11808;BME280;5961;42.640;23.380;2023-05-12T03:57:04;94315.94;;;9.15;100.00
11808;BME280;5961;42.640;23.380;2023-05-12T03:59:30;94314.53;;;9.17;100.00
11808;BME280;5961;42.640;23.380;2023-05-12T04:01:58;94312.19;;;9.16;100.00
11808;BME280;5961;42.640;23.380;2023-05-12T04:04:25;94300.34;;;9.05;100.00
11808;BME280;5961;42.640;23.380;2023-05-12T04:06:52;94315.84;;;9.41;100.00
11808;BME280;5961;42.640;23.380;2023-05-12T04:09:19;94325.88;;;9.35;100.00
11808;BME280;5961;42.640;23.380;2023-05-12T04:11:46;94327.56;;;9.40;100.00
11808;BME280;5961;42.640;23.380;2023-05-12T04:14:12;94335.91;;;9.21;100.00
11808;BME280;5961;42.640;23.380;2023-05-12T04:16:39;94340.25;;;9.17;100.00
11808;BME280;5961;42.640;23.380;2023-05-12T04:19:07;94334.03;;;9.13;100.00
11808;BME280;5961;42.640;23.380;2023-05-12T04:21:34;94331.88;;;9.06;100.00
11808;BME280;5961;42.640;23.380;2023-05-12T04:24:00;94329.69;;;9.00;100.00
11808;BME280;5961;42.640;23.380;2023-05-12T04:26:27;94344.19;;;9.02;100.00
11808;BME280;5961;42.640;23.380;2023-05-12T04:28:54;94347.47;;;8.99;100.00
11808;BME280;5961;42.640;23.380;2023-05-12T04:31:20;94333.00;;;8.88;100.00
11808;BME280;5961;42.640;23.380;2023-05-12T04:33:47;94336.56;;;8.83;100.00
11808;BME280;5961;42.640;23.380;2023-05-12T04:36:15;94288.13;;;8.49;100.00
11808;BME280;5961;42.640;23.380;2023-05-12T04:38:42;94336.41;;;8.89;100.00
11808;BME280;5961;42.640;23.380;2023-05-12T04:41:08;94335.94;;;8.87;100.00
11808;BME280;5961;42.640;23.380;2023-05-12T04:43:35;94335.31;;;8.81;100.00
11808;BME280;5961;42.640;23.380;2023-05-12T04:46:02;94331.72;;;8.77;100.00
11808;BME280;5961;42.640;23.380;2023-05-12T04:48:29;94334.56;;;8.72;100.00
11808;BME280;5961;42.640;23.380;2023-05-12T04:50:57;94332.81;;;8.67;100.00
11808;BME280;5961;42.640;23.380;2023-05-12T04:53:25;94336.75;;;8.70;100.00
11808;BME280;5961;42.640;23.380;2023-05-12T04:55:52;94334.22;;;8.73;100.00
11808;BME280;5961;42.640;23.380;2023-05-12T04:58:20;94335.00;;;8.74;100.00
11808;BME280;5961;42.640;23.380;2023-05-12T05:00:47;94342.97;;;8.74;100.00
11808;BME280;5961;42.640;23.380;2023-05-12T05:03:14;94345.16;;;8.72;100.00
11808;BME280;5961;42.640;23.380;2023-05-12T05:08:10;94349.03;;;8.74;100.00
11808;BME280;5961;42.640;23.380;2023-05-12T05:10:38;94290.00;;;8.40;100.00
11808;BME280;5961;42.640;23.380;2023-05-12T05:13:04;94342.81;;;8.79;100.00
11808;BME280;5961;42.640;23.380;2023-05-12T05:15:31;94338.75;;;8.81;100.00
11808;BME280;5961;42.640;23.380;2023-05-12T05:17:58;94342.19;;;8.82;100.00
11808;BME280;5961;42.640;23.380;2023-05-12T05:20:24;94337.81;;;8.86;100.00
11808;BME280;5961;42.640;23.380;2023-05-12T05:22:52;94340.94;;;8.88;100.00
11808;BME280;5961;42.640;23.380;2023-05-12T05:25:19;94345.13;;;8.89;100.00
11808;BME280;5961;42.640;23.380;2023-05-12T05:27:47;94346.38;;;8.83;100.00
11808;BME280;5961;42.640;23.380;2023-05-12T05:30:14;94341.25;;;8.87;100.00
11808;BME280;5961;42.640;23.380;2023-05-12T05:32:41;94323.00;;;8.68;100.00
11808;BME280;5961;42.640;23.380;2023-05-12T05:35:08;94357.28;;;8.90;100.00
11808;BME280;5961;42.640;23.380;2023-05-12T05:37:34;94356.84;;;8.88;100.00
11808;BME280;5961;42.640;23.380;2023-05-12T05:40:01;94322.22;;;8.67;100.00
11808;BME280;5961;42.640;23.380;2023-05-12T05:42:28;94362.44;;;8.95;100.00
11808;BME280;5961;42.640;23.380;2023-05-12T05:44:56;94357.13;;;8.95;100.00
11808;BME280;5961;42.640;23.380;2023-05-12T05:47:23;94357.94;;;8.87;100.00
11808;BME280;5961;42.640;23.380;2023-05-12T05:49:50;94358.25;;;8.94;100.00
11808;BME280;5961;42.640;23.380;2023-05-12T05:52:17;94359.31;;;9.02;100.00
11808;BME280;5961;42.640;23.380;2023-05-12T05:54:43;94349.19;;;8.95;100.00
11808;BME280;5961;42.640;23.380;2023-05-12T05:57:10;94358.06;;;8.99;100.00
11808;BME280;5961;42.640;23.380;2023-05-12T05:59:37;94358.84;;;9.00;100.00
11808;BME280;5961;42.640;23.380;2023-05-12T06:02:05;94355.41;;;8.99;100.00
11808;BME280;5961;42.640;23.380;2023-05-12T06:04:32;94361.03;;;9.06;100.00
11808;BME280;5961;42.640;23.380;2023-05-12T06:06:59;94363.06;;;9.09;100.00
11808;BME280;5961;42.640;23.380;2023-05-12T06:09:26;94361.03;;;9.15;100.00
11808;BME280;5961;42.640;23.380;2023-05-12T06:11:52;94361.16;;;9.10;100.00
11808;BME280;5961;42.640;23.380;2023-05-12T06:14:19;94368.63;;;9.16;100.00
11808;BME280;5961;42.640;23.380;2023-05-12T06:16:45;94363.66;;;9.15;100.00
11808;BME280;5961;42.640;23.380;2023-05-12T06:19:13;94365.53;;;9.23;100.00
11808;BME280;5961;42.640;23.380;2023-05-12T06:21:40;94366.31;;;9.23;100.00
11808;BME280;5961;42.640;23.380;2023-05-12T06:24:07;94370.97;;;9.26;100.00
11808;BME280;5961;42.640;23.380;2023-05-12T06:26:35;94375.31;;;9.31;100.00
11808;BME280;5961;42.640;23.380;2023-05-12T06:29:02;94369.72;;;9.32;100.00
11808;BME280;5961;42.640;23.380;2023-05-12T06:31:31;94378.91;;;9.35;100.00
11808;BME280;5961;42.640;23.380;2023-05-12T06:33:57;94383.59;;;9.38;100.00
11808;BME280;5961;42.640;23.380;2023-05-12T06:36:26;94380.63;;;9.40;100.00
11808;BME280;5961;42.640;23.380;2023-05-12T06:38:53;94390.75;;;9.37;100.00
11808;BME280;5961;42.640;23.380;2023-05-12T06:41:19;94385.44;;;9.37;100.00
11808;BME280;5961;42.640;23.380;2023-05-12T06:43:49;94385.00;;;9.35;100.00
11808;BME280;5961;42.640;23.380;2023-05-12T06:46:16;94387.81;;;9.30;100.00
11808;BME280;5961;42.640;23.380;2023-05-12T06:48:43;94395.00;;;9.30;100.00
11808;BME280;5961;42.640;23.380;2023-05-12T06:51:09;94392.66;;;9.28;100.00
11808;BME280;5961;42.640;23.380;2023-05-12T06:53:37;94390.63;;;9.25;100.00
11808;BME280;5961;42.640;23.380;2023-05-12T06:56:04;94390.94;;;9.24;100.00
11808;BME280;5961;42.640;23.380;2023-05-12T06:58:31;94391.25;;;9.22;100.00
11808;BME280;5961;42.640;23.380;2023-05-12T07:00:58;94382.38;;;9.18;100.00
11808;BME280;5961;42.640;23.380;2023-05-12T07:03:25;94387.53;;;9.23;100.00
11808;BME280;5961;42.640;23.380;2023-05-12T07:05:52;94381.75;;;9.21;100.00
11808;BME280;5961;42.640;23.380;2023-05-12T07:08:19;94390.63;;;9.25;100.00
11808;BME280;5961;42.640;23.380;2023-05-12T07:10:47;94390.31;;;9.27;100.00
11808;BME280;5961;42.640;23.380;2023-05-12T07:13:13;94386.25;;;9.29;100.00
11808;BME280;5961;42.640;23.380;2023-05-12T07:15:40;94383.44;;;9.34;100.00
11808;BME280;5961;42.640;23.380;2023-05-12T07:18:07;94392.00;;;9.40;100.00
11808;BME280;5961;42.640;23.380;2023-05-12T07:20:33;94394.34;;;9.42;100.00
11808;BME280;5961;42.640;23.380;2023-05-12T07:23:00;94396.66;;;9.43;100.00
11808;BME280;5961;42.640;23.380;2023-05-12T07:25:27;94405.91;;;9.46;100.00
11808;BME280;5961;42.640;23.380;2023-05-12T07:27:55;94396.81;;;9.47;100.00
11808;BME280;5961;42.640;23.380;2023-05-12T07:30:22;94398.22;;;9.53;100.00
11808;BME280;5961;42.640;23.380;2023-05-12T07:32:49;94387.16;;;9.51;100.00
11808;BME280;5961;42.640;23.380;2023-05-12T07:35:16;94394.78;;;9.52;100.00
11808;BME280;5961;42.640;23.380;2023-05-12T07:37:43;94388.84;;;9.55;100.00
11808;BME280;5961;42.640;23.380;2023-05-12T07:40:10;94404.91;;;9.59;100.00
11808;BME280;5961;42.640;23.380;2023-05-12T07:42:37;94395.88;;;9.60;100.00
11808;BME280;5961;42.640;23.380;2023-05-12T07:45:06;94406.63;;;9.63;100.00
11808;BME280;5961;42.640;23.380;2023-05-12T07:47:32;94390.72;;;9.63;100.00
11808;BME280;5961;42.640;23.380;2023-05-12T07:49:59;94403.16;;;9.71;100.00
11808;BME280;5961;42.640;23.380;2023-05-12T07:54:55;94397.66;;;9.85;100.00
11808;BME280;5961;42.640;23.380;2023-05-12T07:57:22;94401.19;;;9.98;99.76
11808;BME280;5961;42.640;23.380;2023-05-12T07:59:48;94385.41;;;10.01;100.00
11808;BME280;5961;42.640;23.380;2023-05-12T08:02:17;94393.63;;;10.17;99.08
11808;BME280;5961;42.640;23.380;2023-05-12T08:04:44;94390.63;;;10.27;97.71
11808;BME280;5961;42.640;23.380;2023-05-12T08:07:11;94395.91;;;10.35;96.47
11808;BME280;5961;42.640;23.380;2023-05-12T08:09:38;94395.38;;;10.42;95.40
11808;BME280;5961;42.640;23.380;2023-05-12T08:12:05;94396.56;;;10.53;96.48
11808;BME280;5961;42.640;23.380;2023-05-12T08:14:31;94397.44;;;10.66;96.87
11808;BME280;5961;42.640;23.380;2023-05-12T08:16:58;94403.91;;;10.77;95.98
11808;BME280;5961;42.640;23.380;2023-05-12T08:19:26;94407.72;;;10.88;95.22
11808;BME280;5961;42.640;23.380;2023-05-12T08:21:53;94409.69;;;10.99;94.30
11808;BME280;5961;42.640;23.380;2023-05-12T08:24:19;94400.06;;;11.07;93.77
11808;BME280;5961;42.640;23.380;2023-05-12T08:26:46;94395.91;;;11.18;93.79
11808;BME280;5961;42.640;23.380;2023-05-12T08:29:13;94407.38;;;11.31;93.41
11808;BME280;5961;42.640;23.380;2023-05-12T08:31:40;94401.97;;;11.39;92.01
11808;BME280;5961;42.640;23.380;2023-05-12T08:34:07;94407.34;;;11.51;92.06
11808;BME280;5961;42.640;23.380;2023-05-12T08:36:35;94409.81;;;11.56;90.32
11808;BME280;5961;42.640;23.380;2023-05-12T08:39:02;94413.81;;;11.63;89.04
11808;BME280;5961;42.640;23.380;2023-05-12T08:41:38;94410.31;;;11.71;88.58
11808;BME280;5961;42.640;23.380;2023-05-12T08:44:07;94383.19;;;11.56;88.87
11808;BME280;5961;42.640;23.380;2023-05-12T08:46:34;94399.19;;;11.69;87.63
11808;BME280;5961;42.640;23.380;2023-05-12T08:49:02;94409.34;;;11.75;88.17
11808;BME280;5961;42.640;23.380;2023-05-12T08:51:31;94412.09;;;11.79;87.06
11808;BME280;5961;42.640;23.380;2023-05-12T08:54:00;94410.34;;;11.83;87.65
11808;BME280;5961;42.640;23.380;2023-05-12T08:56:29;94404.56;;;11.81;87.38
11808;BME280;5961;42.640;23.380;2023-05-12T08:58:57;94402.09;;;11.76;85.81
11808;BME280;5961;42.640;23.380;2023-05-12T09:01:24;94403.41;;;11.70;86.25
11808;BME280;5961;42.640;23.380;2023-05-12T09:03:51;94408.09;;;11.73;86.92
11808;BME280;5961;42.640;23.380;2023-05-12T09:06:18;94400.75;;;11.70;85.38
11808;BME280;5961;42.640;23.380;2023-05-12T09:08:45;94405.06;;;11.62;85.37
11808;BME280;5961;42.640;23.380;2023-05-12T09:11:13;94402.47;;;11.53;85.90
11808;BME280;5961;42.640;23.380;2023-05-12T09:13:48;94405.78;;;11.50;85.44
11808;BME280;5961;42.640;23.380;2023-05-12T09:16:18;94393.81;;;11.44;86.60
11808;BME280;5961;42.640;23.380;2023-05-12T09:18:50;94387.03;;;11.47;87.36
11808;BME280;5961;42.640;23.380;2023-05-12T09:21:17;94375.38;;;11.39;87.03
11808;BME280;5961;42.640;23.380;2023-05-12T09:23:54;94393.16;;;11.47;87.61
11808;BME280;5961;42.640;23.380;2023-05-12T09:26:23;94392.25;;;11.43;86.07
11808;BME280;5961;42.640;23.380;2023-05-12T09:28:51;94390.03;;;11.45;86.82
11808;BME280;5961;42.640;23.380;2023-05-12T09:31:20;94386.91;;;11.43;86.52
11808;BME280;5961;42.640;23.380;2023-05-12T09:33:48;94385.94;;;11.48;87.28
11808;BME280;5961;42.640;23.380;2023-05-12T09:36:18;94387.72;;;11.56;86.15
11808;BME280;5961;42.640;23.380;2023-05-12T09:38:45;94386.41;;;11.62;85.84
11808;BME280;5961;42.640;23.380;2023-05-12T09:41:12;94393.09;;;11.68;84.74
11808;BME280;5961;42.640;23.380;2023-05-12T09:43:51;94362.56;;;11.53;84.11
11808;BME280;5961;42.640;23.380;2023-05-12T09:46:18;94381.94;;;11.75;83.01
11808;BME280;5961;42.640;23.380;2023-05-12T09:48:45;94391.91;;;11.78;82.88
11808;BME280;5961;42.640;23.380;2023-05-12T09:51:15;94397.56;;;11.76;82.14
11808;BME280;5961;42.640;23.380;2023-05-12T09:53:43;94384.78;;;11.70;82.11
11808;BME280;5961;42.640;23.380;2023-05-12T09:56:11;94403.44;;;11.82;80.69
11808;BME280;5961;42.640;23.380;2023-05-12T09:58:40;94382.31;;;11.65;80.73
11808;BME280;5961;42.640;23.380;2023-05-12T10:01:10;94387.59;;;11.85;81.36
11808;BME280;5961;42.640;23.380;2023-05-12T10:03:39;94394.81;;;11.97;80.64
11808;BME280;5961;42.640;23.380;2023-05-12T10:06:08;94383.50;;;12.00;80.89
11808;BME280;5961;42.640;23.380;2023-05-12T10:08:38;94385.50;;;12.03;80.28
11808;BME280;5961;42.640;23.380;2023-05-12T10:11:08;94389.28;;;12.14;80.01
11808;BME280;5961;42.640;23.380;2023-05-12T10:13:37;94347.09;;;12.04;80.69
11808;BME280;5961;42.640;23.380;2023-05-12T10:16:04;94382.28;;;12.34;80.47
11808;BME280;5961;42.640;23.380;2023-05-12T10:18:33;94355.53;;;12.30;79.77
11808;BME280;5961;42.640;23.380;2023-05-12T10:21:01;94375.47;;;12.60;79.67
11808;BME280;5961;42.640;23.380;2023-05-12T10:23:29;94379.69;;;12.74;81.36
11808;BME280;5961;42.640;23.380;2023-05-12T10:25:56;94381.44;;;12.82;78.30
11808;BME280;5961;42.640;23.380;2023-05-12T10:28:26;94386.31;;;12.92;77.93
11808;BME280;5961;42.640;23.380;2023-05-12T10:30:55;94373.50;;;12.97;76.62
11808;BME280;5961;42.640;23.380;2023-05-12T10:33:23;94382.94;;;13.07;76.22
11808;BME280;5961;42.640;23.380;2023-05-12T10:35:51;94370.25;;;13.16;76.99
11808;BME280;5961;42.640;23.380;2023-05-12T10:38:18;94380.00;;;13.24;77.09
11808;BME280;5961;42.640;23.380;2023-05-12T10:40:53;94363.94;;;13.36;77.96
11808;BME280;5961;42.640;23.380;2023-05-12T10:43:22;94354.63;;;13.30;76.63
11808;BME280;5961;42.640;23.380;2023-05-12T10:46:05;94371.72;;;13.41;76.10
11808;BME280;5961;42.640;23.380;2023-05-12T10:48:32;94363.44;;;13.46;76.07
11808;BME280;5961;42.640;23.380;2023-05-12T10:51:07;94361.22;;;13.48;76.07
11808;BME280;5961;42.640;23.380;2023-05-12T10:53:34;94359.75;;;13.51;75.29
11808;BME280;5961;42.640;23.380;2023-05-12T10:56:02;94348.00;;;13.40;74.59
11808;BME280;5961;42.640;23.380;2023-05-12T10:58:30;94361.41;;;13.55;75.98
11808;BME280;5961;42.640;23.380;2023-05-12T11:01:03;94366.06;;;13.58;74.59
11808;BME280;5961;42.640;23.380;2023-05-12T11:03:31;94355.09;;;13.48;75.25
11808;BME280;5961;42.640;23.380;2023-05-12T11:05:59;94340.38;;;13.38;74.43
11808;BME280;5961;42.640;23.380;2023-05-12T11:08:28;94369.59;;;13.62;74.22
11808;BME280;5961;42.640;23.380;2023-05-12T11:10:55;94376.06;;;13.61;75.02
11808;BME280;5961;42.640;23.380;2023-05-12T11:13:23;94375.63;;;13.59;74.73
11808;BME280;5961;42.640;23.380;2023-05-12T11:15:49;94369.41;;;13.55;74.70
11808;BME280;5961;42.640;23.380;2023-05-12T11:18:19;94372.09;;;13.55;74.35
11808;BME280;5961;42.640;23.380;2023-05-12T11:20:46;94377.06;;;13.57;74.17
11808;BME280;5961;42.640;23.380;2023-05-12T11:23:22;94382.41;;;13.57;73.85
11808;BME280;5961;42.640;23.380;2023-05-12T11:25:52;94378.78;;;13.49;73.96
11808;BME280;5961;42.640;23.380;2023-05-12T11:28:19;94389.78;;;13.48;72.45
11808;BME280;5961;42.640;23.380;2023-05-12T11:30:49;94388.69;;;13.49;73.64
11808;BME280;5961;42.640;23.380;2023-05-12T11:33:18;94365.50;;;13.37;74.03
11808;BME280;5961;42.640;23.380;2023-05-12T11:35:46;94377.13;;;13.45;73.25
11808;BME280;5961;42.640;23.380;2023-05-12T11:38:16;94376.28;;;13.41;72.69
11808;BME280;5961;42.640;23.380;2023-05-12T11:40:43;94394.38;;;13.47;71.56
11808;BME280;5961;42.640;23.380;2023-05-12T11:43:11;94378.25;;;13.44;72.98
11808;BME280;5961;42.640;23.380;2023-05-12T11:45:39;94375.59;;;13.44;72.99
11808;BME280;5961;42.640;23.380;2023-05-12T11:48:08;94385.25;;;13.48;72.53
11808;BME280;5961;42.640;23.380;2023-05-12T11:50:39;94375.69;;;13.47;71.83
11808;BME280;5961;42.640;23.380;2023-05-12T11:53:09;94378.09;;;13.52;71.78
11808;BME280;5961;42.640;23.380;2023-05-12T11:55:36;94383.97;;;13.58;73.45
11808;BME280;5961;42.640;23.380;2023-05-12T11:58:03;94383.66;;;13.59;73.57
11808;BME280;5961;42.640;23.380;2023-05-12T12:00:33;94380.72;;;13.64;73.21
11808;BME280;5961;42.640;23.380;2023-05-12T12:03:10;94375.63;;;13.59;72.29
11808;BME280;5961;42.640;23.380;2023-05-12T12:05:39;94384.31;;;13.56;72.24
11808;BME280;5961;42.640;23.380;2023-05-12T12:08:08;94381.03;;;13.47;73.34
11808;BME280;5961;42.640;23.380;2023-05-12T12:10:37;94384.44;;;13.48;72.72
11808;BME280;5961;42.640;23.380;2023-05-12T12:13:03;94389.28;;;13.42;71.85
11808;BME280;5961;42.640;23.380;2023-05-12T12:15:31;94392.19;;;13.37;72.03
11808;BME280;5961;42.640;23.380;2023-05-12T12:17:58;94393.75;;;13.38;72.39
11808;BME280;5961;42.640;23.380;2023-05-12T12:20:25;94390.63;;;13.36;72.30
11808;BME280;5961;42.640;23.380;2023-05-12T12:22:52;94388.84;;;13.40;72.56
11808;BME280;5961;42.640;23.380;2023-05-12T12:25:20;94376.50;;;13.36;71.96
11808;BME280;5961;42.640;23.380;2023-05-12T12:27:47;94380.63;;;13.33;72.17
11808;BME280;5961;42.640;23.380;2023-05-12T12:30:14;94373.84;;;13.36;72.83
11808;BME280;5961;42.640;23.380;2023-05-12T12:32:43;94378.16;;;13.40;73.03
11808;BME280;5961;42.640;23.380;2023-05-12T12:35:10;94384.88;;;13.34;71.76
11808;BME280;5961;42.640;23.380;2023-05-12T12:37:38;94383.75;;;13.35;72.14
11808;BME280;5961;42.640;23.380;2023-05-12T12:40:05;94395.28;;;13.39;71.33
11808;BME280;5961;42.640;23.380;2023-05-12T12:42:35;94390.72;;;13.40;71.53
11808;BME280;5961;42.640;23.380;2023-05-12T12:45:03;94382.09;;;13.31;71.27
11808;BME280;5961;42.640;23.380;2023-05-12T12:47:29;94394.44;;;13.35;71.22
11808;BME280;5961;42.640;23.380;2023-05-12T12:49:58;94389.16;;;13.39;72.20
11808;BME280;5961;42.640;23.380;2023-05-12T12:52:25;94391.41;;;13.37;70.95
11808;BME280;5961;42.640;23.380;2023-05-12T12:54:51;94393.31;;;13.36;70.39
11808;BME280;5961;42.640;23.380;2023-05-12T12:57:18;94381.94;;;13.39;70.01
11808;BME280;5961;42.640;23.380;2023-05-12T12:59:46;94384.19;;;13.37;69.78
11808;BME280;5961;42.640;23.380;2023-05-12T13:02:13;94391.94;;;13.42;70.27
11808;BME280;5961;42.640;23.380;2023-05-12T13:04:40;94369.28;;;13.36;69.60
11808;BME280;5961;42.640;23.380;2023-05-12T13:07:08;94372.41;;;13.38;70.10